Time;durP1;ratioP1;P1;durP2;ratioP2;P2;SDS_P1;SDS_P2;PMS_P1;PMS_P2;Temp;Humidity;BMP_temperature;BMP_pressure;BME280_temperature;BME280_humidity;BME280_pressure;Samples;Min_cycle;Max_cycle;Signal;HPM_P1;HPM_P2
2022/06/16 00:02:14;;;;;;;3.23;2.43;;;14.40;99.90;;;;;;6216942;23;20024;-83
2022/06/16 00:04:46;;;;;;;3.63;2.70;;;14.40;99.90;;;;;;6216506;23;20106;-83
2022/06/16 00:07:13;;;;;;;4.82;3.40;;;14.40;99.90;;;;;;6192023;23;20345;-83
2022/06/16 00:09:39;;;;;;;3.95;2.67;;;14.30;99.90;;;;;;6216444;23;20012;-83
2022/06/16 00:12:05;;;;;;;2.97;2.03;;;14.30;99.90;;;;;;6216890;23;20082;-83
2022/06/16 00:14:31;;;;;;;4.30;2.90;;;14.30;99.90;;;;;;6191255;23;20024;-83
2022/06/16 00:16:56;;;;;;;7.07;2.15;;;14.20;99.90;;;;;;6191819;23;20028;-83
2022/06/16 00:19:22;;;;;;;6.50;2.60;;;14.30;99.90;;;;;;6216819;23;20020;-83
2022/06/16 00:21:48;;;;;;;3.83;2.47;;;14.20;99.90;;;;;;6216442;23;20032;-83
2022/06/16 00:24:13;;;;;;;4.57;2.20;;;14.20;99.90;;;;;;6167137;23;20070;-83
2022/06/16 00:26:39;;;;;;;2.40;2.20;;;14.20;99.90;;;;;;6142132;23;20012;-83
2022/06/16 00:29:05;;;;;;;8.03;2.63;;;14.20;99.90;;;;;;6191744;23;20056;-83
2022/06/16 00:31:30;;;;;;;3.73;2.33;;;14.20;99.90;;;;;;6191348;23;20016;-84
2022/06/16 00:33:56;;;;;;;3.60;2.40;;;14.10;99.90;;;;;;6216815;23;20466;-83
2022/06/16 00:36:24;;;;;;;3.30;2.10;;;14.10;99.90;;;;;;6167011;23;20027;-83
2022/06/16 00:38:49;;;;;;;2.20;1.65;;;14.00;99.90;;;;;;6191694;23;20449;-83
2022/06/16 00:41:15;;;;;;;4.10;2.50;;;13.90;99.90;;;;;;6191813;23;20070;-83
2022/06/16 00:43:41;;;;;;;2.87;2.50;;;13.90;99.90;;;;;;6191250;23;20382;-83
2022/06/16 00:46:14;;;;;;;2.53;2.33;;;13.80;99.90;;;;;;6216496;23;20059;-83
2022/06/16 00:48:43;;;;;;;2.80;2.20;;;13.80;99.90;;;;;;6191259;23;20020;-83
2022/06/16 00:51:11;;;;;;;3.60;2.88;;;13.80;99.90;;;;;;6217015;23;20102;-83
2022/06/16 00:53:39;;;;;;;3.05;2.42;;;13.80;99.90;;;;;;6216280;23;20012;-83
2022/06/16 00:56:07;;;;;;;3.88;2.58;;;13.80;99.90;;;;;;6217169;23;20024;-83
2022/06/16 00:58:36;;;;;;;2.38;2.00;;;13.90;99.90;;;;;;6216211;23;20024;-85
2022/06/16 01:01:02;;;;;;;3.28;2.00;;;13.80;99.90;;;;;;6216866;23;20017;-83
2022/06/16 01:06:33;;;;;;;3.58;2.05;;;13.80;99.90;;;;;;6216682;23;20071;-83
2022/06/16 01:09:04;;;;;;;4.00;1.80;;;13.70;99.90;;;;;;6190893;23;20024;-83
2022/06/16 01:14:52;;;;;;;3.28;2.15;;;13.60;99.90;;;;;;6214740;23;20032;-83
2022/06/16 01:17:36;;;;;;;3.47;2.00;;;13.60;99.90;;;;;;6215322;23;20020;-83
2022/06/16 01:20:20;;;;;;;3.05;2.20;;;13.50;99.90;;;;;;6190144;23;20460;-83
2022/06/16 01:23:17;;;;;;;4.20;2.28;;;13.50;99.90;;;;;;6214685;23;20017;-83
2022/06/16 01:25:45;;;;;;;3.38;2.00;;;13.50;99.90;;;;;;6189144;23;20472;-83
2022/06/16 01:28:29;;;;;;;3.22;1.92;;;13.40;99.90;;;;;;6214687;23;20025;-83
2022/06/16 01:31:21;;;;;;;3.17;2.00;;;13.40;99.90;;;;;;6214615;23;20425;-83
2022/06/16 01:33:46;;;;;;;3.03;1.83;;;13.30;99.90;;;;;;6214525;23;20035;-83
2022/06/16 01:36:23;;;;;;;2.43;2.23;;;13.30;99.90;;;;;;6189953;23;20016;-83
2022/06/16 01:38:56;;;;;;;3.05;2.42;;;13.30;99.90;;;;;;6214448;23;20017;-83
2022/06/16 01:41:35;;;;;;;2.08;1.65;;;13.20;99.90;;;;;;6214927;23;20437;-83
2022/06/16 01:44:04;;;;;;;2.72;2.13;;;13.20;99.90;;;;;;6214418;23;20088;-83
2022/06/16 01:46:32;;;;;;;3.30;2.38;;;13.20;99.90;;;;;;6214943;23;20107;-83
2022/06/16 01:49:21;;;;;;;2.67;2.15;;;13.20;99.90;;;;;;6189436;23;20016;-83
2022/06/16 01:51:50;;;;;;;3.42;2.22;;;13.20;99.90;;;;;;6189308;23;20013;-83
2022/06/16 01:54:20;;;;;;;4.07;2.20;;;13.20;99.90;;;;;;6189729;23;20023;-83
2022/06/16 01:57:17;;;;;;;3.38;2.28;;;13.10;99.90;;;;;;6214334;23;20017;-83
2022/06/16 02:00:08;;;;;;;3.97;2.47;;;13.10;99.90;;;;;;6211783;23;20100;-84
2022/06/16 02:02:38;;;;;;;3.60;2.55;;;13.10;99.90;;;;;;6214946;23;20013;-83
2022/06/16 02:05:15;;;;;;;2.88;2.35;;;13.30;99.90;;;;;;6214133;23;20078;-83
2022/06/16 02:08:05;;;;;;;3.05;2.22;;;13.10;99.90;;;;;;6214201;23;20067;-85
2022/06/16 02:10:39;;;;;;;3.55;2.28;;;13.10;99.90;;;;;;6189698;23;20017;-83
2022/06/16 02:13:10;;;;;;;2.38;1.90;;;13.10;99.90;;;;;;6189412;23;20110;-83
2022/06/16 02:15:58;;;;;;;3.60;2.00;;;13.20;99.90;;;;;;6189479;23;20020;-83
2022/06/16 02:18:27;;;;;;;2.80;2.20;;;13.20;99.90;;;;;;6214554;23;20052;-83
2022/06/16 02:21:22;;;;;;;3.65;2.92;;;13.20;99.90;;;;;;6213839;23;20515;-83
2022/06/16 02:23:48;;;;;;;3.85;2.67;;;13.20;99.90;;;;;;6213470;23;20017;-83
2022/06/16 02:26:15;;;;;;;2.58;2.33;;;13.20;99.90;;;;;;6214311;23;20122;-83
2022/06/16 02:29:21;;;;;;;2.88;2.30;;;13.20;99.90;;;;;;6213917;23;20031;-83
2022/06/16 02:31:55;;;;;;;3.33;1.98;;;13.20;99.90;;;;;;6214088;23;20520;-84
2022/06/16 02:34:21;;;;;;;2.28;2.08;;;13.20;99.90;;;;;;6189475;23;20086;-83
2022/06/16 02:37:14;;;;;;;4.93;3.27;;;13.20;99.90;;;;;;6214036;23;20017;-83
2022/06/16 02:39:55;;;;;;;4.00;2.03;;;13.20;99.90;;;;;;6214406;23;20021;-83
2022/06/16 02:42:41;;;;;;;5.68;2.80;;;13.10;99.90;;;;;;6214501;23;20409;-83
2022/06/16 02:45:19;;;;;;;2.33;2.13;;;13.00;99.90;;;;;;6213824;23;20027;-83
2022/06/16 02:48:12;;;;;;;2.53;2.33;;;13.00;99.90;;;;;;6189016;23;20048;-88
2022/06/16 02:51:05;;;;;;;5.30;3.03;;;13.10;99.90;;;;;;6214358;23;20392;-83
2022/06/16 02:53:42;;;;;;;4.45;2.80;;;13.10;99.90;;;;;;6189395;23;20048;-83
2022/06/16 02:56:47;;;;;;;3.50;2.38;;;13.20;99.90;;;;;;6213696;23;20079;-83
2022/06/16 02:59:32;;;;;;;3.65;2.03;;;13.10;99.90;;;;;;6189040;23;20017;-83
2022/06/16 03:02:12;;;;;;;2.03;1.83;;;13.20;99.90;;;;;;6188629;23;20027;-83
2022/06/16 03:04:43;;;;;;;3.70;2.55;;;13.20;99.90;;;;;;6214105;23;20016;-83
2022/06/16 03:07:14;;;;;;;3.70;2.55;;;13.20;99.90;;;;;;6213575;23;20058;-83
2022/06/16 03:09:40;;;;;;;3.78;2.72;;;13.10;99.90;;;;;;6164519;23;20087;-83
2022/06/16 03:12:08;;;;;;;3.70;2.40;;;13.20;99.90;;;;;;6188789;23;20024;-83
2022/06/16 03:14:34;;;;;;;1.95;1.85;;;13.20;99.90;;;;;;6188938;23;20016;-83
2022/06/16 03:17:01;;;;;;;2.70;2.38;;;13.10;99.90;;;;;;6188359;23;20024;-83
2022/06/16 03:19:28;;;;;;;3.35;3.05;;;13.10;99.90;;;;;;6214001;23;20039;-83
2022/06/16 03:21:54;;;;;;;3.90;3.10;;;13.10;99.90;;;;;;6188684;23;20012;-83
2022/06/16 03:24:20;;;;;;;;;;;13.10;99.90;;;;;;6214514;23;20352;-83
2022/06/16 03:26:46;;;;;;;2.40;2.20;;;13.10;99.90;;;;;;6213498;23;19995;-83
2022/06/16 03:29:13;;;;;;;3.83;2.47;;;13.00;99.90;;;;;;6241062;23;20095;-83
2022/06/16 03:31:38;;;;;;;2.88;2.42;;;13.00;99.90;;;;;;6193884;23;20443;-83
2022/06/16 03:34:04;;;;;;;2.93;2.47;;;13.00;99.90;;;;;;6193375;23;20111;-83
2022/06/16 03:36:31;;;;;;;5.15;2.78;;;13.00;99.90;;;;;;6193573;23;20024;-83
2022/06/16 03:38:58;;;;;;;2.47;2.03;;;13.00;99.90;;;;;;6218186;23;20027;-83
2022/06/16 03:41:24;;;;;;;4.00;2.30;;;13.00;99.90;;;;;;6193747;23;20055;-83
2022/06/16 03:43:49;;;;;;;3.30;2.53;;;13.00;99.90;;;;;;6218766;23;20074;-83
2022/06/16 03:46:16;;;;;;;6.23;2.57;;;12.90;99.90;;;;;;6218348;23;20012;-83
2022/06/16 03:48:43;;;;;;;3.63;2.88;;;12.90;99.90;;;;;;6169054;23;20075;-82
2022/06/16 03:51:09;;;;;;;3.20;2.53;;;12.90;99.90;;;;;;6218229;23;20017;-83
2022/06/16 03:53:36;;;;;;;5.90;2.40;;;12.90;99.90;;;;;;6193669;23;20337;-83
2022/06/16 03:56:01;;;;;;;;;;;12.90;99.90;;;;;;6193646;23;20051;-83
2022/06/16 03:58:27;;;;;;;3.13;2.40;;;12.80;99.90;;;;;;6193544;23;19915;-83
2022/06/16 04:00:53;;;;;;;2.63;2.40;;;12.80;99.90;;;;;;6193728;23;20018;-83
2022/06/16 04:06:03;;;;;;;2.50;2.28;;;12.80;99.90;;;;;;6196990;23;20078;-83
2022/06/16 04:08:29;;;;;;;8.60;2.53;;;12.70;99.90;;;;;;6218984;23;20016;-83
2022/06/16 04:10:55;;;;;;;2.97;2.53;;;12.70;99.90;;;;;;6218512;23;20580;-88
2022/06/16 04:13:21;;;;;;;4.63;3.03;;;12.70;99.90;;;;;;6218659;23;20024;-84
2022/06/16 04:15:46;;;;;;;2.58;2.35;;;12.70;99.90;;;;;;6193592;23;20016;-83
2022/06/16 04:18:12;;;;;;;3.57;2.03;;;12.80;99.90;;;;;;6217745;23;20008;-83
2022/06/16 04:20:38;;;;;;;3.27;2.73;;;12.80;99.90;;;;;;6193842;23;20078;-83
2022/06/16 04:23:10;;;;;;;5.65;2.95;;;12.90;99.90;;;;;;6193099;23;20243;-83
2022/06/16 04:25:36;;;;;;;3.28;2.97;;;12.90;99.90;;;;;;6170149;23;20028;-83
2022/06/16 04:28:04;;;;;;;3.05;2.03;;;12.90;99.90;;;;;;6212386;23;20024;-83
2022/06/16 04:30:31;;;;;;;4.47;2.67;;;13.00;99.90;;;;;;6213504;23;20052;-83
2022/06/16 04:32:58;;;;;;;;;;;13.00;99.90;;;;;;6188758;23;20016;-89
2022/06/16 04:35:25;;;;;;;2.87;2.63;;;13.10;99.90;;;;;;6214005;23;19970;-83
2022/06/16 04:37:52;;;;;;;6.22;2.63;;;13.10;99.90;;;;;;6213494;23;20339;-83
2022/06/16 04:40:18;;;;;;;3.75;2.17;;;13.20;99.90;;;;;;6212966;23;20017;-83
2022/06/16 04:42:43;;;;;;;5.85;2.85;;;13.20;99.90;;;;;;6213545;23;20021;-83
2022/06/16 04:45:10;;;;;;;3.13;2.83;;;13.30;99.90;;;;;;6188043;23;20341;-82
2022/06/16 04:47:37;;;;;;;4.47;2.40;;;13.30;99.90;;;;;;6189291;23;20019;-83
2022/06/16 04:50:04;;;;;;;3.67;3.05;;;13.40;99.90;;;;;;6214892;23;20024;-83
2022/06/16 04:52:30;;;;;;;6.55;2.53;;;13.50;99.90;;;;;;6190563;23;20488;-83
2022/06/16 04:54:55;;;;;;;6.07;3.43;;;13.60;99.90;;;;;;6165538;23;20021;-83
2022/06/16 04:57:22;;;;;;;4.13;2.10;;;13.70;99.90;;;;;;6189792;23;20449;-83
2022/06/16 04:59:47;;;;;;;;;;;13.70;99.90;;;;;;6190815;23;20016;-83
2022/06/16 05:02:13;;;;;;;6.68;3.28;;;13.80;99.90;;;;;;6189644;23;19923;-83
2022/06/16 05:04:39;;;;;;;3.87;2.30;;;13.80;99.90;;;;;;6214851;23;20013;-83
2022/06/16 05:07:05;;;;;;;3.23;2.30;;;13.90;99.90;;;;;;6164822;23;20056;-83
2022/06/16 05:09:31;;;;;;;;;;;14.00;99.90;;;;;;6215635;23;20075;-83
2022/06/16 05:11:56;;;;;;;3.30;2.10;;;14.10;99.90;;;;;;6190012;23;19915;-83
2022/06/16 05:14:23;;;;;;;2.80;2.20;;;14.10;99.90;;;;;;6214734;23;20063;-83
2022/06/16 05:16:49;;;;;;;;;;;14.10;99.90;;;;;;6190697;23;20016;-83
2022/06/16 05:19:15;;;;;;;3.63;2.17;;;14.20;99.90;;;;;;6189533;23;19915;-83
2022/06/16 05:21:40;;;;;;;2.00;1.67;;;14.20;99.90;;;;;;6190221;23;20024;-83
2022/06/16 05:24:07;;;;;;;3.00;2.10;;;14.30;99.90;;;;;;6189471;23;20059;-84
2022/06/16 05:26:33;;;;;;;1.40;1.23;;;14.40;99.90;;;;;;6215011;23;20021;-83
2022/06/16 05:28:59;;;;;;;4.63;2.10;;;14.40;99.90;;;;;;6189578;23;20473;-83
2022/06/16 05:31:24;;;;;;;1.63;1.53;;;14.40;99.90;;;;;;6214481;23;20252;-83
2022/06/16 05:33:50;;;;;;;3.07;1.57;;;14.40;99.90;;;;;;6189939;23;20103;-83
2022/06/16 05:36:18;;;;;;;2.23;2.03;;;14.50;99.90;;;;;;6189440;23;20016;-83
2022/06/16 05:38:44;;;;;;;2.58;1.85;;;14.60;99.90;;;;;;6215026;23;20016;-83
2022/06/16 05:41:15;;;;;;;5.40;2.78;;;14.60;99.90;;;;;;6214592;23;20016;-83
2022/06/16 05:43:42;;;;;;;3.15;1.75;;;14.60;99.90;;;;;;6215248;23;20392;-83
2022/06/16 05:46:14;;;;;;;2.97;1.60;;;14.60;99.90;;;;;;6214416;23;20012;-84
2022/06/16 05:48:40;;;;;;;3.83;1.50;;;14.60;99.90;;;;;;6214777;23;20029;-83
2022/06/16 05:51:09;;;;;;;5.10;1.80;;;14.70;99.90;;;;;;6214966;23;20119;-84
2022/06/16 05:53:36;;;;;;;1.88;1.38;;;14.70;99.90;;;;;;6214841;23;20080;-84
2022/06/16 05:56:02;;;;;;;1.80;1.17;;;14.80;99.90;;;;;;6165187;23;20016;-83
2022/06/16 05:58:28;;;;;;;2.53;1.83;;;14.80;99.90;;;;;;6213663;23;20017;-84
2022/06/16 06:00:54;;;;;;;1.58;1.23;;;15.10;99.90;;;;;;6214717;23;20079;-83
2022/06/16 06:03:20;;;;;;;2.55;2.05;;;15.20;99.90;;;;;;6189233;23;20353;-84
2022/06/16 06:05:46;;;;;;;3.80;1.50;;;15.40;99.90;;;;;;6189747;23;20158;-83
2022/06/16 06:16:28;;;;;;;5.72;2.40;;;16.20;99.90;;;;;;6171820;23;20027;-83
2022/06/16 06:18:58;;;;;;;2.42;1.60;;;16.40;99.90;;;;;;6214339;23;20433;-84
2022/06/16 06:24:11;;;;;;;3.03;1.60;;;16.70;99.90;;;;;;6214038;23;20382;-83
2022/06/16 06:26:37;;;;;;;1.98;1.60;;;16.90;99.90;;;;;;6214440;23;20023;-83
2022/06/16 06:29:03;;;;;;;;;;;17.00;99.90;;;;;;6215076;23;20067;-83
2022/06/16 06:31:29;;;;;;;3.90;1.10;;;17.10;99.90;;;;;;6188939;23;19919;-83
2022/06/16 06:33:54;;;;;;;1.77;0.93;;;17.20;99.90;;;;;;6214459;23;20070;-84
2022/06/16 06:36:20;;;;;;;0.90;0.90;;;17.40;99.90;;;;;;6214085;23;20024;-84
2022/06/16 06:38:46;;;;;;;1.77;0.88;;;17.50;99.90;;;;;;6214462;23;20013;-83
2022/06/16 06:41:12;;;;;;;1.45;1.02;;;17.60;99.90;;;;;;6214385;23;20341;-83
2022/06/16 06:43:37;;;;;;;2.53;1.38;;;17.70;99.90;;;;;;6189399;23;20016;-84
2022/06/16 06:46:03;;;;;;;1.33;1.23;;;17.70;99.90;;;;;;6189288;23;20016;-84
2022/06/16 06:48:29;;;;;;;0.90;0.80;;;17.90;99.90;;;;;;6213789;23;20290;-84
2022/06/16 06:50:55;;;;;;;2.08;1.00;;;18.00;99.90;;;;;;6164544;23;20024;-83
2022/06/16 06:53:20;;;;;;;1.07;0.80;;;18.10;99.90;;;;;;6188799;23;20449;-84
2022/06/16 06:55:47;;;;;;;1.33;0.77;;;18.10;99.90;;;;;;6189468;23;20248;-84
2022/06/16 06:58:17;;;;;;;;;;;18.20;99.90;;;;;;6164847;23;20806;-84
2022/06/16 07:00:42;;;;;;;1.27;0.93;;;18.30;99.90;;;;;;6214553;23;20002;-84
2022/06/16 07:03:09;;;;;;;1.23;1.10;;;18.40;99.90;;;;;;6189079;23;20017;-84
2022/06/16 07:05:34;;;;;;;0.90;0.80;;;18.50;99.90;;;;;;6188810;23;20244;-84
2022/06/16 07:08:00;;;;;;;0.93;0.68;;;18.60;99.90;;;;;;6189037;23;20160;-83
2022/06/16 07:10:26;;;;;;;1.20;1.10;;;18.70;99.90;;;;;;6163456;23;20023;-84
2022/06/16 07:12:52;;;;;;;0.93;0.93;;;18.90;99.90;;;;;;6188817;23;20020;-84
2022/06/16 07:15:17;;;;;;;2.80;0.93;;;18.90;99.90;;;;;;6163779;23;20107;-85
2022/06/16 07:17:43;;;;;;;2.20;2.00;;;18.90;99.90;;;;;;6164174;23;20021;-83
2022/06/16 07:20:13;;;;;;;1.33;1.23;;;19.00;99.90;;;;;;6213915;23;20013;-83
2022/06/16 07:22:39;;;;;;;1.10;0.70;;;19.10;99.90;;;;;;6214244;23;20012;-84
2022/06/16 07:25:05;;;;;;;1.92;1.35;;;19.20;99.90;;;;;;6214382;23;20100;-85
2022/06/16 07:27:30;;;;;;;0.70;0.70;;;19.30;99.90;;;;;;6191105;23;20024;-84
2022/06/16 07:29:56;;;;;;;1.33;1.23;;;19.30;99.90;;;;;;6194166;23;20065;-84
2022/06/16 07:32:22;;;;;;;1.17;0.70;;;19.40;99.90;;;;;;6168627;23;20012;-84
2022/06/16 07:34:48;;;;;;;0.75;0.65;;;19.50;99.90;;;;;;6193962;23;20026;-83
2022/06/16 07:37:14;;;;;;;;;;;19.50;99.90;;;;;;6219296;23;20441;-84
2022/06/16 07:39:40;;;;;;;0.80;0.60;;;19.50;99.90;;;;;;6218314;23;19926;-84
2022/06/16 07:42:08;;;;;;;2.55;0.85;;;19.60;99.90;;;;;;6218776;23;20349;-84
2022/06/16 07:44:34;;;;;;;1.00;0.68;;;19.70;99.90;;;;;;6193889;23;20074;-84
2022/06/16 07:47:00;;;;;;;2.75;0.88;;;19.70;99.90;;;;;;6193901;23;20020;-84
2022/06/16 07:49:27;;;;;;;2.95;0.95;;;19.80;99.90;;;;;;6218416;23;20467;-84
2022/06/16 07:51:55;;;;;;;1.15;0.68;;;19.80;99.90;;;;;;6194000;23;20019;-84
2022/06/16 07:54:21;;;;;;;2.83;1.02;;;19.80;99.90;;;;;;6218572;23;20027;-84
2022/06/16 07:56:47;;;;;;;2.78;1.20;;;19.90;99.90;;;;;;6193358;23;20020;-84
2022/06/16 07:59:13;;;;;;;2.40;0.82;;;19.90;99.90;;;;;;6218648;23;20344;-84
2022/06/16 08:01:39;;;;;;;0.77;0.63;;;20.00;99.90;;;;;;6193218;23;20099;-84
2022/06/16 08:04:05;;;;;;;2.58;0.73;;;20.00;99.90;;;;;;6219121;23;20074;-84
2022/06/16 08:06:34;;;;;;;1.10;1.00;;;20.10;99.90;;;;;;6218118;23;20020;-84
2022/06/16 08:09:00;;;;;;;0.70;0.70;;;20.10;99.90;;;;;;6218573;23;20461;-84
2022/06/16 08:14:10;;;;;;;1.13;0.85;;;20.30;99.90;;;;;;6197148;23;20091;-84
2022/06/16 08:16:36;;;;;;;2.55;1.52;;;20.30;99.90;;;;;;6218109;23;20051;-84
2022/06/16 08:19:03;;;;;;;;;;;20.30;99.90;;;;;;6219004;23;20039;-83
2022/06/16 08:21:29;;;;;;;1.17;1.02;;;20.40;99.90;;;;;;6218796;23;19915;-84
2022/06/16 08:23:55;;;;;;;1.10;0.82;;;20.40;99.90;;;;;;6247420;23;20447;-83
2022/06/16 08:26:22;;;;;;;1.00;0.90;;;20.40;99.90;;;;;;6220536;23;20055;-84
2022/06/16 08:28:50;;;;;;;0.93;0.93;;;20.50;99.90;;;;;;6194795;23;20024;-83
2022/06/16 08:31:17;;;;;;;4.10;1.00;;;20.50;99.90;;;;;;6220582;23;20027;-83
2022/06/16 08:33:43;;;;;;;2.70;1.15;;;20.60;99.90;;;;;;6195182;23;20024;-84
2022/06/16 08:36:09;;;;;;;1.73;1.20;;;20.70;99.90;;;;;;6220506;23;20012;-83
2022/06/16 08:38:35;;;;;;;1.15;0.73;;;20.70;99.90;;;;;;6195058;23;20024;-84
2022/06/16 08:41:11;;;;;;;1.65;1.08;;;20.70;99.90;;;;;;6195366;23;20440;-83
2022/06/16 08:43:51;;;;;;;;;;;20.80;99.90;;;;;;6220573;23;20468;-83
2022/06/16 08:46:18;;;;;;;1.90;1.02;;;20.90;99.90;;;;;;6220591;23;19915;-83
2022/06/16 08:49:26;;;;;;;1.60;1.20;;;20.90;99.90;;;;;;6246787;23;20023;-83
2022/06/16 08:52:19;;;;;;;1.45;1.08;;;21.00;99.90;;;;;;6193448;23;20030;-83
2022/06/16 08:54:58;;;;;;;3.28;1.20;;;21.10;99.90;;;;;;6194762;23;20016;-83
2022/06/16 08:57:45;;;;;;;2.22;0.88;;;21.10;99.90;;;;;;6220062;23;20020;-83
2022/06/16 09:00:16;;;;;;;1.80;1.40;;;21.00;99.90;;;;;;6195263;23;20024;-83
2022/06/16 09:02:47;;;;;;;2.65;1.55;;;21.00;99.90;;;;;;6219760;23;20491;-83
2022/06/16 09:05:16;;;;;;;4.38;1.08;;;21.10;99.90;;;;;;6220251;23;20433;-83
2022/06/16 09:07:48;;;;;;;0.80;0.77;;;21.10;99.90;;;;;;6219747;23;20098;-83
2022/06/16 09:10:26;;;;;;;4.63;1.35;;;21.20;99.90;;;;;;6220227;23;20441;-83
2022/06/16 09:12:57;;;;;;;2.05;0.90;;;21.30;99.90;;;;;;6194764;23;20353;-83
2022/06/16 09:16:01;;;;;;;2.75;1.35;;;21.40;99.90;;;;;;6195135;23;20016;-83
2022/06/16 09:18:35;;;;;;;1.48;1.23;;;21.50;99.90;;;;;;6220120;23;20023;-83
2022/06/16 09:21:10;;;;;;;1.13;0.88;;;21.50;99.90;;;;;;6220060;23;20023;-83
2022/06/16 09:23:48;;;;;;;3.08;1.00;;;21.50;99.90;;;;;;6219679;23;20023;-84
2022/06/16 09:26:20;;;;;;;2.45;1.00;;;21.60;99.90;;;;;;6220031;23;20059;-83
2022/06/16 09:28:55;;;;;;;3.13;1.25;;;21.70;99.90;;;;;;6219353;23;20458;-83
2022/06/16 09:31:35;;;;;;;1.50;1.08;;;21.70;99.90;;;;;;6220050;23;20048;-83
2022/06/16 09:34:08;;;;;;;0.93;0.90;;;21.60;99.90;;;;;;6219715;23;20452;-83
2022/06/16 09:36:40;;;;;;;1.10;1.00;;;21.50;99.90;;;;;;6219475;23;20078;-85
2022/06/16 09:39:09;;;;;;;4.45;1.35;;;21.60;99.90;;;;;;6220032;23;20023;-83
2022/06/16 09:44:36;;;;;;;1.65;1.00;;;21.80;99.90;;;;;;6220014;23;20031;-83
2022/06/16 09:47:10;;;;;;;3.45;1.85;;;21.90;99.90;;;;;;6246706;23;20012;-83
2022/06/16 09:49:54;;;;;;;4.32;1.50;;;21.90;99.90;;;;;;6219923;23;20020;-84
2022/06/16 09:52:35;;;;;;;3.20;1.27;;;21.90;99.90;;;;;;6247786;23;20069;-83
2022/06/16 09:55:11;;;;;;;1.45;1.25;;;22.00;99.90;;;;;;6219732;23;20027;-82
2022/06/16 09:57:46;;;;;;;1.50;1.20;;;22.00;99.90;;;;;;6195854;23;20083;-85
2022/06/16 10:00:19;;;;;;;1.65;1.42;;;22.10;99.90;;;;;;6220075;23;20016;-83
2022/06/16 10:02:51;;;;;;;2.42;1.38;;;22.10;99.90;;;;;;6194424;23;20384;-83
2022/06/16 10:05:37;;;;;;;2.13;1.38;;;22.00;99.90;;;;;;6220033;23;20043;-83
2022/06/16 10:08:21;;;;;;;2.58;1.13;;;22.10;99.90;;;;;;6219864;23;20018;-83
2022/06/16 10:10:55;;;;;;;3.10;1.40;;;22.10;99.90;;;;;;6245739;23;20534;-83
2022/06/16 10:13:30;;;;;;;2.20;1.30;;;22.20;99.90;;;;;;6219648;23;20023;-83
2022/06/16 10:16:10;;;;;;;2.03;1.42;;;22.30;99.90;;;;;;6194105;23;20413;-83
2022/06/16 10:18:35;;;;;;;1.85;1.30;;;22.20;99.90;;;;;;6219595;23;20016;-83
2022/06/16 10:21:04;;;;;;;2.25;1.38;;;22.30;99.90;;;;;;6219251;23;20397;-83
2022/06/16 10:23:38;;;;;;;2.67;1.30;;;22.30;99.90;;;;;;6194763;23;20024;-83
2022/06/16 10:26:07;;;;;;;1.95;1.58;;;22.40;99.90;;;;;;6218889;23;20012;-83
2022/06/16 10:28:44;;;;;;;3.30;1.20;;;22.40;99.90;;;;;;6193952;23;20379;-83
2022/06/16 10:31:17;;;;;;;1.60;1.50;;;22.50;99.90;;;;;;6219555;23;20456;-83
2022/06/16 10:33:56;;;;;;;5.57;1.50;;;22.50;99.90;;;;;;6218493;23;20016;-83
2022/06/16 10:36:25;;;;;;;3.78;1.30;;;22.50;99.60;;;;;;6219442;23;20027;-83
2022/06/16 10:39:16;;;;;;;2.20;1.30;;;22.60;99.60;;;;;;6218708;23;20400;-83
2022/06/16 10:42:23;;;;;;;2.40;1.70;;;22.70;99.30;;;;;;6218944;23;20023;-85
2022/06/16 10:44:56;;;;;;;1.33;1.10;;;22.70;99.70;;;;;;6160329;23;20321;-84
2022/06/16 10:47:30;;;;;;;3.00;2.20;;;22.80;99.40;;;;;;6219400;23;20012;-83
2022/06/16 10:49:56;;;;;;;5.28;2.38;;;22.90;98.70;;;;;;6218470;23;20448;-83
2022/06/16 10:52:55;;;;;;;1.65;1.50;;;22.90;99.10;;;;;;6219209;23;20468;-83
2022/06/16 10:55:29;;;;;;;2.00;1.80;;;23.00;99.10;;;;;;6187440;23;20020;-83
2022/06/16 10:58:20;;;;;;;5.13;1.70;;;23.20;99.30;;;;;;6218632;23;20024;-83
2022/06/16 11:01:04;;;;;;;5.45;2.15;;;23.30;99.90;;;;;;6193524;23;20016;-84
2022/06/16 11:03:36;;;;;;;1.88;1.40;;;23.30;99.50;;;;;;6246218;23;20028;-82
2022/06/16 11:06:05;;;;;;;4.38;1.67;;;23.20;98.70;;;;;;6218505;23;20047;-83
2022/06/16 11:08:55;;;;;;;2.38;1.58;;;23.20;98.40;;;;;;6219766;23;20022;-83
2022/06/16 11:11:33;;;;;;;1.65;1.45;;;23.20;97.40;;;;;;6219170;23;20020;-83
2022/06/16 11:14:02;;;;;;;2.08;1.60;;;23.20;96.70;;;;;;6218687;23;20048;-83
2022/06/16 11:16:37;;;;;;;1.77;1.48;;;23.20;97.20;;;;;;6219014;23;20020;-82
2022/06/16 11:19:09;;;;;;;3.33;1.63;;;23.20;96.70;;;;;;6193403;23;20091;-83
2022/06/16 11:21:36;;;;;;;3.47;1.50;;;23.20;96.70;;;;;;6193478;23;20012;-83
2022/06/16 11:24:07;;;;;;;2.63;1.10;;;23.30;96.80;;;;;;6193650;23;20055;-83
2022/06/16 11:26:42;;;;;;;2.65;1.40;;;23.30;96.50;;;;;;6218949;23;20451;-83
2022/06/16 11:29:11;;;;;;;1.63;1.52;;;23.40;96.70;;;;;;6217954;23;20052;-83
2022/06/16 11:31:44;;;;;;;1.95;1.58;;;23.50;95.70;;;;;;6218948;23;20122;-83
2022/06/16 11:34:23;;;;;;;2.70;2.08;;;23.50;95.80;;;;;;6245211;23;20023;-83
2022/06/16 11:37:11;;;;;;;2.22;1.50;;;23.60;95.00;;;;;;6218625;23;20392;-85
2022/06/16 11:39:42;;;;;;;1.60;1.50;;;23.60;94.70;;;;;;6193651;23;20094;-83
2022/06/16 11:42:35;;;;;;;1.58;1.33;;;23.70;95.00;;;;;;6218318;23;20020;-83
2022/06/16 11:45:19;;;;;;;1.80;1.20;;;23.80;94.80;;;;;;6193312;23;20099;-83
2022/06/16 11:48:03;;;;;;;2.35;1.50;;;23.80;94.40;;;;;;6219081;23;20066;-83
2022/06/16 11:50:36;;;;;;;1.17;1.08;;;23.80;94.80;;;;;;6219072;23;20023;-83
2022/06/16 11:53:27;;;;;;;1.63;1.50;;;23.90;94.80;;;;;;6218383;23;20022;-83
2022/06/16 11:56:07;;;;;;;2.42;1.80;;;24.00;93.90;;;;;;6218178;23;20388;-84
2022/06/16 11:59:03;;;;;;;2.65;1.52;;;23.80;93.30;;;;;;6218330;23;20033;-83
2022/06/16 12:01:43;;;;;;;3.92;1.90;;;23.80;93.30;;;;;;6193919;23;20020;-83
2022/06/16 12:04:37;;;;;;;2.35;1.45;;;23.60;93.60;;;;;;6218297;23;20345;-83
2022/06/16 12:07:27;;;;;;;3.10;1.90;;;23.50;93.10;;;;;;6217861;23;20016;-83
2022/06/16 12:10:25;;;;;;;3.70;1.73;;;23.50;93.90;;;;;;6218157;23;20452;-84
2022/06/16 12:13:36;;;;;;;1.55;1.45;;;23.60;94.40;;;;;;6218774;23;20020;-83
2022/06/16 12:16:04;;;;;;;2.30;1.48;;;23.70;93.90;;;;;;6136927;23;20016;-83
2022/06/16 12:18:32;;;;;;;3.50;1.65;;;23.60;93.80;;;;;;6193520;23;20039;-83
2022/06/16 12:21:18;;;;;;;1.75;1.40;;;23.60;93.90;;;;;;6193178;23;20016;-83
2022/06/16 12:23:52;;;;;;;2.95;1.70;;;23.80;94.50;;;;;;6218685;23;20503;-83
2022/06/16 12:26:24;;;;;;;1.85;1.70;;;23.80;93.60;;;;;;6218295;23;20016;-83
2022/06/16 12:29:07;;;;;;;2.35;1.85;;;23.80;93.20;;;;;;6244745;23;20441;-83
2022/06/16 12:32:01;;;;;;;3.28;1.52;;;23.80;93.50;;;;;;6218686;23;20012;-83
2022/06/16 12:34:33;;;;;;;3.80;2.00;;;23.80;94.00;;;;;;6219049;23;20023;-83
2022/06/16 12:37:04;;;;;;;1.77;1.58;;;23.90;93.60;;;;;;6193263;23;20066;-83
2022/06/16 12:39:46;;;;;;;1.80;1.40;;;24.00;93.40;;;;;;6218551;23;20066;-83
2022/06/16 12:42:16;;;;;;;4.28;2.00;;;24.10;93.20;;;;;;6244966;23;20050;-83
2022/06/16 12:44:45;;;;;;;2.00;1.52;;;24.20;92.90;;;;;;6245285;23;20471;-83
2022/06/16 12:47:22;;;;;;;3.28;1.73;;;24.10;92.80;;;;;;6218045;23;20162;-83
2022/06/16 12:50:08;;;;;;;4.82;1.50;;;24.00;92.40;;;;;;6218669;23;20031;-83
2022/06/16 12:52:39;;;;;;;4.82;1.70;;;24.00;92.70;;;;;;6193532;23;20056;-83
2022/06/16 12:55:11;;;;;;;7.25;2.25;;;24.00;92.50;;;;;;6217950;23;20023;-83
2022/06/16 12:57:42;;;;;;;7.50;1.77;;;24.10;92.40;;;;;;6193468;23;20052;-83
2022/06/16 13:00:13;;;;;;;2.95;1.90;;;24.20;92.20;;;;;;6193053;23;20020;-83
2022/06/16 13:02:53;;;;;;;1.65;1.55;;;24.30;92.40;;;;;;6218820;23;20020;-83
2022/06/16 13:05:20;;;;;;;2.60;1.38;;;24.40;91.40;;;;;;6244804;23;20337;-83
2022/06/16 13:07:52;;;;;;;3.63;1.90;;;24.60;91.30;;;;;;6218435;23;20048;-83
2022/06/16 13:10:19;;;;;;;2.47;1.30;;;24.60;91.20;;;;;;6219788;23;20012;-83
2022/06/16 13:12:52;;;;;;;;;;;24.70;91.70;;;;;;6247508;23;20039;-83
2022/06/16 13:15:32;;;;;;;1.20;1.20;;;24.70;91.30;;;;;;6194737;23;19965;-83
2022/06/16 13:18:27;;;;;;;2.00;1.40;;;24.70;90.00;;;;;;6219679;23;20016;-83
2022/06/16 13:20:58;;;;;;;4.00;1.60;;;24.80;90.10;;;;;;6220426;23;20043;-83
2022/06/16 13:23:32;;;;;;;2.65;1.48;;;24.70;89.40;;;;;;6219603;23;20107;-83
2022/06/16 13:26:17;;;;;;;3.08;1.95;;;24.80;89.50;;;;;;6220081;23;20154;-83
2022/06/16 13:29:06;;;;;;;3.53;1.58;;;24.90;90.10;;;;;;6214920;23;20456;-83
2022/06/16 13:31:46;;;;;;;3.60;1.55;;;24.90;89.20;;;;;;6170610;23;20023;-83
2022/06/16 13:34:15;;;;;;;2.95;1.70;;;24.90;88.40;;;;;;6214484;23;20047;-83
2022/06/16 13:36:52;;;;;;;1.45;1.35;;;24.90;89.40;;;;;;6190189;23;20035;-83
2022/06/16 13:40:12;;;;;;;2.08;1.52;;;25.00;88.50;;;;;;6189422;23;20075;-83
2022/06/16 13:42:57;;;;;;;1.92;1.67;;;25.00;86.90;;;;;;6047104;23;20025;-83
2022/06/16 13:45:29;;;;;;;4.10;1.98;;;24.80;87.20;;;;;;6202375;23;20062;-83